Time;durP1;ratioP1;P1;durP2;ratioP2;P2;SDS_P1;SDS_P2;PMS_P1;PMS_P2;Temp;Humidity;BMP_temperature;BMP_pressure;BME280_temperature;BME280_humidity;BME280_pressure;Samples;Min_cycle;Max_cycle;Signal;HPM_P1;HPM_P2
2023/07/21 00:00:21;;;;;;;6.72;2.20;;;;;;;;;;4976273;28;20487;-66
2023/07/21 00:02:48;;;;;;;4.45;2.22;;;;;;;;;;4976455;28;20038;-66
2023/07/21 00:05:15;;;;;;;4.20;2.40;;;;;;;;;;4976349;28;20471;-66
2023/07/21 00:07:41;;;;;;;7.65;2.30;;;;;;;;;;4976487;28;20027;-66
2023/07/21 00:10:09;;;;;;;5.30;2.33;;;;;;;;;;4976273;28;20033;-65
2023/07/21 00:12:35;;;;;;;6.38;2.40;;;;;;;;;;4976408;28;20031;-67
2023/07/21 00:15:02;;;;;;;4.65;2.38;;;;;;;;;;4975963;28;20109;-65
2023/07/21 00:17:30;;;;;;;3.90;2.20;;;;;;;;;;4976277;28;20041;-66
2023/07/21 00:20:03;;;;;;;3.00;2.00;;;;;;;;;;4976372;28;20033;-66
2023/07/21 00:22:31;;;;;;;3.75;2.30;;;;;;;;;;4976053;28;20491;-66
2023/07/21 00:25:00;;;;;;;3.00;2.20;;;;;;;;;;4974337;28;20037;-66
2023/07/21 00:27:27;;;;;;;4.05;2.50;;;;;;;;;;4975354;28;20027;-66
2023/07/21 00:29:53;;;;;;;3.95;2.60;;;;;;;;;;4975887;28;20035;-66
2023/07/21 00:32:20;;;;;;;4.38;2.45;;;;;;;;;;4975791;28;20030;-66
2023/07/21 00:34:46;;;;;;;3.53;2.17;;;;;;;;;;4975848;28;20023;-66
2023/07/21 00:37:14;;;;;;;4.03;2.38;;;;;;;;;;4975635;28;20031;-66
2023/07/21 00:39:41;;;;;;;4.70;2.38;;;;;;;;;;4975841;28;20021;-66
2023/07/21 00:42:07;;;;;;;3.90;2.20;;;;;;;;;;4975591;28;20475;-66
2023/07/21 00:44:36;;;;;;;4.90;2.75;;;;;;;;;;4975560;28;20399;-66
2023/07/21 00:47:03;;;;;;;3.85;2.30;;;;;;;;;;4975497;28;20471;-66
2023/07/21 00:49:31;;;;;;;4.88;2.10;;;;;;;;;;4975510;28;20368;-66
2023/07/21 00:51:58;;;;;;;5.75;2.20;;;;;;;;;;4975736;28;20034;-66
2023/07/21 00:54:24;;;;;;;4.80;2.10;;;;;;;;;;4974875;28;20030;-66
2023/07/21 00:56:51;;;;;;;5.28;2.20;;;;;;;;;;4975556;28;20026;-66
2023/07/21 00:59:17;;;;;;;4.80;2.33;;;;;;;;;;4975443;28;20027;-66
2023/07/21 01:01:43;;;;;;;9.23;2.20;;;;;;;;;;4975168;28;20029;-66
2023/07/21 01:04:10;;;;;;;3.53;1.98;;;;;;;;;;4975338;28;20518;-66
2023/07/21 01:06:38;;;;;;;7.07;2.30;;;;;;;;;;4975377;28;20023;-66
2023/07/21 01:09:06;;;;;;;5.70;2.05;;;;;;;;;;4975205;28;20026;-66
2023/07/21 01:11:34;;;;;;;7.20;2.53;;;;;;;;;;4975350;28;20081;-66
2023/07/21 01:14:02;;;;;;;3.58;2.42;;;;;;;;;;4974770;28;20054;-66
2023/07/21 01:16:29;;;;;;;4.57;2.33;;;;;;;;;;4974914;28;20038;-66
2023/07/21 01:18:55;;;;;;;4.18;2.10;;;;;;;;;;4974832;28;20039;-66
2023/07/21 01:21:30;;;;;;;5.00;2.20;;;;;;;;;;4974814;28;20038;-66
2023/07/21 01:24:01;;;;;;;5.25;2.03;;;;;;;;;;4974720;28;20031;-66
2023/07/21 01:26:28;;;;;;;3.28;1.73;;;;;;;;;;4974975;28;20073;-66
2023/07/21 01:28:55;;;;;;;3.58;2.22;;;;;;;;;;4974907;28;20111;-66
2023/07/21 01:31:23;;;;;;;3.92;1.75;;;;;;;;;;4974729;28;20023;-66
2023/07/21 01:33:50;;;;;;;4.38;2.00;;;;;;;;;;4974893;28;20025;-66
2023/07/21 01:36:17;;;;;;;6.22;2.30;;;;;;;;;;4974594;28;20071;-66
2023/07/21 01:38:44;;;;;;;4.85;2.10;;;;;;;;;;4973713;28;20027;-66
2023/07/21 01:41:12;;;;;;;2.88;1.80;;;;;;;;;;4974856;28;20029;-66
2023/07/21 01:43:39;;;;;;;3.05;2.03;;;;;;;;;;4974426;28;20088;-66
2023/07/21 01:46:05;;;;;;;3.90;1.88;;;;;;;;;;4974553;28;20464;-66
2023/07/21 01:48:31;;;;;;;4.45;1.88;;;;;;;;;;4974542;28;20035;-66
2023/07/21 01:50:58;;;;;;;5.57;2.05;;;;;;;;;;4974488;28;20411;-66
2023/07/21 01:53:26;;;;;;;3.83;2.10;;;;;;;;;;4974011;28;20022;-67
2023/07/21 01:55:57;;;;;;;6.78;2.30;;;;;;;;;;4974220;28;20402;-66
2023/07/21 01:58:24;;;;;;;5.45;2.05;;;;;;;;;;4974643;28;20022;-66
2023/07/21 02:00:51;;;;;;;5.13;1.80;;;;;;;;;;4974173;28;20043;-66
2023/07/21 02:03:18;;;;;;;2.80;1.85;;;;;;;;;;4974215;28;20037;-66
2023/07/21 02:05:45;;;;;;;6.00;1.90;;;;;;;;;;4974243;28;20028;-66
2023/07/21 02:08:11;;;;;;;4.50;2.25;;;;;;;;;;4973797;28;20038;-66
2023/07/21 02:10:37;;;;;;;5.95;2.20;;;;;;;;;;4974209;28;20033;-66
2023/07/21 02:13:04;;;;;;;2.50;1.77;;;;;;;;;;4974022;28;20037;-66
2023/07/21 02:15:31;;;;;;;5.60;2.20;;;;;;;;;;4973902;28;20388;-66
2023/07/21 02:17:57;;;;;;;5.10;2.15;;;;;;;;;;4974070;28;20045;-66
2023/07/21 02:20:24;;;;;;;5.55;1.88;;;;;;;;;;4989281;28;20036;-66
2023/07/21 02:22:50;;;;;;;4.45;2.17;;;;;;;;;;4973548;28;20042;-66
2023/07/21 02:25:17;;;;;;;5.78;2.25;;;;;;;;;;4973636;28;20031;-67
2023/07/21 02:27:44;;;;;;;3.78;2.05;;;;;;;;;;4973725;28;20501;-66
2023/07/21 02:30:10;;;;;;;4.20;2.00;;;;;;;;;;4973938;28;20510;-66
2023/07/21 02:32:36;;;;;;;6.25;1.90;;;;;;;;;;4973666;28;20505;-67
2023/07/21 02:35:03;;;;;;;7.28;1.90;;;;;;;;;;4973985;28;20026;-66
2023/07/21 02:37:29;;;;;;;4.80;1.92;;;;;;;;;;4974060;28;20023;-65
2023/07/21 02:39:56;;;;;;;5.03;1.90;;;;;;;;;;4973744;28;20018;-65
2023/07/21 02:42:22;;;;;;;4.57;1.80;;;;;;;;;;4973674;28;20031;-66
2023/07/21 02:44:49;;;;;;;5.60;2.13;;;;;;;;;;4973679;28;20033;-66
2023/07/21 02:47:16;;;;;;;5.13;1.73;;;;;;;;;;4973784;28;20533;-66
2023/07/21 02:49:43;;;;;;;4.43;2.38;;;;;;;;;;4974102;28;20023;-66
2023/07/21 02:52:09;;;;;;;3.75;1.80;;;;;;;;;;4977830;28;20475;-66
2023/07/21 02:54:36;;;;;;;3.90;1.90;;;;;;;;;;4977653;28;20023;-66
2023/07/21 02:57:02;;;;;;;5.15;2.10;;;;;;;;;;4977697;28;20025;-66
2023/07/21 02:59:29;;;;;;;4.00;1.60;;;;;;;;;;4977675;28;20467;-66
2023/07/21 03:01:56;;;;;;;3.63;2.05;;;;;;;;;;4977322;28;20100;-66
2023/07/21 03:04:23;;;;;;;6.18;2.13;;;;;;;;;;4977082;28;20041;-66
2023/07/21 03:06:51;;;;;;;4.63;1.88;;;;;;;;;;4977532;28;20023;-66
2023/07/21 03:09:17;;;;;;;4.93;2.10;;;;;;;;;;4977246;28;20395;-66
2023/07/21 03:11:43;;;;;;;5.80;1.83;;;;;;;;;;4977519;28;20037;-66
2023/07/21 03:14:10;;;;;;;7.00;1.90;;;;;;;;;;4977368;28;20092;-67
2023/07/21 03:16:37;;;;;;;3.95;1.98;;;;;;;;;;4977135;28;20023;-66
2023/07/21 03:19:03;;;;;;;4.43;1.90;;;;;;;;;;4977159;28;20029;-66
2023/07/21 03:21:29;;;;;;;4.43;1.90;;;;;;;;;;4977497;28;20033;-66
2023/07/21 03:23:56;;;;;;;6.18;2.15;;;;;;;;;;4977290;28;20035;-66
2023/07/21 03:26:24;;;;;;;3.90;1.85;;;;;;;;;;4977387;28;20030;-66
2023/07/21 03:28:52;;;;;;;5.82;1.83;;;;;;;;;;4976937;28;20019;-66
2023/07/21 03:31:18;;;;;;;3.72;1.67;;;;;;;;;;4977187;28;20406;-66
2023/07/21 03:33:44;;;;;;;7.28;1.85;;;;;;;;;;4976923;28;20039;-66
2023/07/21 03:36:11;;;;;;;11.05;2.42;;;;;;;;;;4976852;28;20015;-66
2023/07/21 03:38:37;;;;;;;4.10;1.75;;;;;;;;;;4976924;28;20414;-66
2023/07/21 03:41:05;;;;;;;7.03;2.10;;;;;;;;;;4976856;28;20023;-66
2023/07/21 03:43:31;;;;;;;5.88;1.83;;;;;;;;;;4976716;28;20033;-66
2023/07/21 03:46:02;;;;;;;5.95;1.77;;;;;;;;;;4976796;28;20475;-66
2023/07/21 03:48:29;;;;;;;3.60;1.63;;;;;;;;;;4976620;28;20030;-66
2023/07/21 03:50:59;;;;;;;5.57;1.90;;;;;;;;;;4976565;28;20438;-66
2023/07/21 03:53:26;;;;;;;3.00;1.80;;;;;;;;;;4976602;28;20033;-66
2023/07/21 03:55:53;;;;;;;2.40;1.50;;;;;;;;;;4976441;28;20037;-66
2023/07/21 03:58:20;;;;;;;6.97;2.05;;;;;;;;;;4976577;28;20019;-66
2023/07/21 04:00:46;;;;;;;5.60;1.70;;;;;;;;;;4975807;28;20475;-66
2023/07/21 04:03:13;;;;;;;7.97;1.88;;;;;;;;;;4975422;28;20487;-66
2023/07/21 04:05:40;;;;;;;5.63;1.95;;;;;;;;;;4976617;28;20019;-66
2023/07/21 04:08:06;;;;;;;4.00;1.70;;;;;;;;;;4976392;28;20023;-66
2023/07/21 04:10:32;;;;;;;7.72;2.15;;;;;;;;;;4976116;28;20501;-66
2023/07/21 04:12:59;;;;;;;5.30;1.85;;;;;;;;;;4976182;28;20513;-65
2023/07/21 04:15:26;;;;;;;5.95;1.98;;;;;;;;;;4976008;28;20043;-64
2023/07/21 04:17:52;;;;;;;6.45;2.05;;;;;;;;;;4975670;28;20026;-64
2023/07/21 04:20:19;;;;;;;7.03;1.92;;;;;;;;;;4976122;28;20025;-67
2023/07/21 04:22:45;;;;;;;3.22;1.55;;;;;;;;;;4975667;28;20034;-68
2023/07/21 04:25:12;;;;;;;4.60;1.73;;;;;;;;;;4956542;29;20035;-66
2023/07/21 04:27:38;;;;;;;8.65;2.50;;;;;;;;;;4956613;29;20508;-68
2023/07/21 04:30:05;;;;;;;4.10;2.10;;;;;;;;;;4956390;28;20027;-69
2023/07/21 04:32:32;;;;;;;5.43;1.90;;;;;;;;;;4955036;29;20039;-66
2023/07/21 04:34:58;;;;;;;3.22;1.80;;;;;;;;;;4956546;29;20027;-68
2023/07/21 04:37:25;;;;;;;6.10;2.28;;;;;;;;;;4956605;29;20495;-68
2023/07/21 04:39:52;;;;;;;6.28;1.88;;;;;;;;;;4956783;29;20035;-67
2023/07/21 04:42:18;;;;;;;5.38;1.85;;;;;;;;;;4956495;29;20057;-67
2023/07/21 04:44:44;;;;;;;8.15;2.03;;;;;;;;;;4956355;29;20392;-67
2023/07/21 04:47:11;;;;;;;5.57;2.03;;;;;;;;;;4955946;28;20035;-67
2023/07/21 04:49:37;;;;;;;12.82;2.60;;;;;;;;;;4956299;29;20539;-68
2023/07/21 04:52:04;;;;;;;3.60;1.95;;;;;;;;;;4956529;29;20031;-67
2023/07/21 04:54:30;;;;;;;8.02;2.10;;;;;;;;;;4956028;28;20377;-67
2023/07/21 04:56:56;;;;;;;4.28;1.88;;;;;;;;;;4955965;29;20027;-67
2023/07/21 04:59:23;;;;;;;7.47;2.00;;;;;;;;;;4956020;29;20039;-68
2023/07/21 05:01:50;;;;;;;6.63;1.75;;;;;;;;;;4955592;28;20031;-67
2023/07/21 05:04:16;;;;;;;12.00;2.47;;;;;;;;;;4955937;29;20038;-67
2023/07/21 05:06:43;;;;;;;5.03;2.10;;;;;;;;;;4955786;28;20023;-67
2023/07/21 05:09:13;;;;;;;11.13;2.60;;;;;;;;;;4956248;29;20038;-67
2023/07/21 05:11:39;;;;;;;7.47;2.43;;;;;;;;;;4955675;29;20023;-68
2023/07/21 05:14:06;;;;;;;14.02;2.88;;;;;;;;;;4954286;28;20282;-67
2023/07/21 05:16:32;;;;;;;11.63;2.38;;;;;;;;;;4957879;28;20039;-67
2023/07/21 05:18:58;;;;;;;7.50;2.17;;;;;;;;;;4974959;28;20037;-67
2023/07/21 05:21:25;;;;;;;4.90;1.67;;;;;;;;;;4975263;28;20022;-67
2023/07/21 05:23:51;;;;;;;10.52;2.10;;;;;;;;;;4974724;28;20033;-67
2023/07/21 05:26:17;;;;;;;5.72;1.58;;;;;;;;;;4975037;28;20482;-67
2023/07/21 05:28:46;;;;;;;6.57;2.35;;;;;;;;;;4974692;28;20041;-67
2023/07/21 05:31:13;;;;;;;2.30;1.98;;;;;;;;;;4974494;28;20029;-67
2023/07/21 05:33:39;;;;;;;4.90;2.03;;;;;;;;;;4974611;28;20545;-67
2023/07/21 05:36:07;;;;;;;4.78;1.90;;;;;;;;;;4974701;28;20030;-67
2023/07/21 05:38:35;;;;;;;2.03;1.65;;;;;;;;;;4974712;28;20396;-68
2023/07/21 05:41:02;;;;;;;3.08;1.80;;;;;;;;;;4974622;28;20027;-67
2023/07/21 05:43:28;;;;;;;7.07;1.70;;;;;;;;;;4974544;28;20031;-67
2023/07/21 05:45:55;;;;;;;3.88;1.85;;;;;;;;;;4974158;28;20080;-67
2023/07/21 05:48:24;;;;;;;2.83;1.92;;;;;;;;;;4974571;28;20035;-67
2023/07/21 05:50:52;;;;;;;3.85;2.15;;;;;;;;;;4974536;28;20018;-67
2023/07/21 05:53:19;;;;;;;3.10;2.00;;;;;;;;;;4974410;28;20088;-67
2023/07/21 05:55:46;;;;;;;3.25;2.10;;;;;;;;;;4974449;28;20019;-67
2023/07/21 05:58:13;;;;;;;2.15;1.70;;;;;;;;;;4974037;28;20031;-67
2023/07/21 06:00:39;;;;;;;3.92;1.67;;;;;;;;;;4973602;28;20019;-67
2023/07/21 06:03:06;;;;;;;2.92;1.92;;;;;;;;;;4968378;28;20559;-68
2023/07/21 06:05:36;;;;;;;4.35;1.90;;;;;;;;;;4970420;28;20031;-67
2023/07/21 06:08:04;;;;;;;3.08;1.90;;;;;;;;;;4973214;28;20026;-68
2023/07/21 06:10:31;;;;;;;3.50;1.83;;;;;;;;;;4970535;28;20376;-68
2023/07/21 06:12:57;;;;;;;4.45;1.80;;;;;;;;;;4972497;28;20390;-67
2023/07/21 06:15:26;;;;;;;6.13;2.00;;;;;;;;;;4971372;28;20116;-67
2023/07/21 06:17:53;;;;;;;2.55;1.75;;;;;;;;;;4969076;28;20395;-67
2023/07/21 06:20:24;;;;;;;3.58;1.77;;;;;;;;;;4963437;28;20473;-67
2023/07/21 06:22:52;;;;;;;4.80;1.63;;;;;;;;;;4970835;28;20033;-67
2023/07/21 06:25:21;;;;;;;2.95;2.15;;;;;;;;;;4972661;28;20046;-68
2023/07/21 06:27:48;;;;;;;2.90;1.52;;;;;;;;;;4972932;28;20026;-67
2023/07/21 06:30:14;;;;;;;5.00;1.83;;;;;;;;;;4973434;28;20027;-67
2023/07/21 06:32:41;;;;;;;2.05;1.42;;;;;;;;;;4973335;28;20443;-67
2023/07/21 06:35:08;;;;;;;3.30;1.40;;;;;;;;;;4972429;28;20022;-68
2023/07/21 06:37:34;;;;;;;2.60;1.60;;;;;;;;;;4973219;28;20033;-67
2023/07/21 06:40:02;;;;;;;2.40;1.63;;;;;;;;;;4971715;28;20373;-67
2023/07/21 06:42:28;;;;;;;1.30;1.20;;;;;;;;;;4971039;28;20471;-66
2023/07/21 06:44:54;;;;;;;3.20;1.50;;;;;;;;;;4968582;28;20030;-68
2023/07/21 06:47:20;;;;;;;2.33;1.52;;;;;;;;;;4971145;28;20796;-69
2023/07/21 06:49:47;;;;;;;4.68;1.25;;;;;;;;;;4972406;28;20063;-73
2023/07/21 06:52:14;;;;;;;4.05;1.65;;;;;;;;;;4971885;28;20022;-69
2023/07/21 06:54:40;;;;;;;5.95;1.63;;;;;;;;;;4971777;28;20567;-68
2023/07/21 06:57:07;;;;;;;6.78;1.55;;;;;;;;;;4964900;28;20023;-67
2023/07/21 06:59:34;;;;;;;2.17;1.20;;;;;;;;;;4972199;28;20487;-68
2023/07/21 07:02:00;;;;;;;4.05;1.50;;;;;;;;;;4972269;28;20054;-68
2023/07/21 07:04:27;;;;;;;3.90;1.50;;;;;;;;;;4972246;28;20102;-69
2023/07/21 07:06:55;;;;;;;2.42;1.30;;;;;;;;;;4970527;28;20028;-69
2023/07/21 07:09:23;;;;;;;2.15;1.52;;;;;;;;;;4961134;28;20031;-68
2023/07/21 07:11:50;;;;;;;2.97;1.20;;;;;;;;;;4952596;29;20035;-67
2023/07/21 07:14:16;;;;;;;4.38;1.33;;;;;;;;;;4953231;29;20043;-67
2023/07/21 07:16:43;;;;;;;1.52;1.23;;;;;;;;;;4963851;28;20030;-69
2023/07/21 07:19:10;;;;;;;1.50;1.15;;;;;;;;;;4972529;28;20041;-68
2023/07/21 07:21:36;;;;;;;2.72;1.13;;;;;;;;;;4972299;28;20015;-67
2023/07/21 07:24:02;;;;;;;1.38;1.00;;;;;;;;;;4972295;28;20034;-69
2023/07/21 07:26:29;;;;;;;3.78;1.38;;;;;;;;;;4971888;28;20029;-67
2023/07/21 07:28:57;;;;;;;1.50;1.10;;;;;;;;;;4972024;28;20505;-67
2023/07/21 07:31:23;;;;;;;2.00;1.25;;;;;;;;;;4972182;28;20435;-69
2023/07/21 07:33:49;;;;;;;1.73;1.20;;;;;;;;;;4972120;28;20089;-68
2023/07/21 07:36:15;;;;;;;1.25;1.15;;;;;;;;;;4974357;28;20033;-69
2023/07/21 07:38:42;;;;;;;2.58;1.30;;;;;;;;;;4975712;28;20037;-69
2023/07/21 07:41:09;;;;;;;4.07;1.40;;;;;;;;;;4975367;28;20023;-69
2023/07/21 07:43:36;;;;;;;2.28;1.25;;;;;;;;;;4975893;28;20038;-69
2023/07/21 07:46:05;;;;;;;2.35;1.50;;;;;;;;;;4973333;28;20032;-69
2023/07/21 07:48:33;;;;;;;1.63;1.30;;;;;;;;;;4975027;28;20027;-67
2023/07/21 07:51:02;;;;;;;1.50;1.38;;;;;;;;;;4974753;28;20046;-69
2023/07/21 07:53:29;;;;;;;1.63;1.38;;;;;;;;;;4975435;28;20053;-69
2023/07/21 07:55:55;;;;;;;4.10;1.73;;;;;;;;;;4974519;28;20035;-68
2023/07/21 07:58:21;;;;;;;2.75;1.40;;;;;;;;;;4975136;28;20035;-69
2023/07/21 08:00:47;;;;;;;4.35;1.63;;;;;;;;;;4975736;28;20034;-69
2023/07/21 08:03:14;;;;;;;1.90;1.58;;;;;;;;;;4974359;28;20039;-69
2023/07/21 08:05:41;;;;;;;3.83;1.52;;;;;;;;;;4975171;28;20019;-68
2023/07/21 08:08:09;;;;;;;1.27;1.10;;;;;;;;;;4975288;28;20019;-68
2023/07/21 08:10:35;;;;;;;4.35;1.40;;;;;;;;;;4975063;28;20084;-69
2023/07/21 08:13:03;;;;;;;2.15;1.27;;;;;;;;;;4975563;28;20027;-70
2023/07/21 08:15:29;;;;;;;1.27;1.10;;;;;;;;;;4975059;28;20038;-70
2023/07/21 08:17:55;;;;;;;2.45;1.30;;;;;;;;;;4975188;28;20081;-68
2023/07/21 08:20:22;;;;;;;1.35;1.20;;;;;;;;;;4990026;28;20387;-62
2023/07/21 08:22:50;;;;;;;2.40;1.50;;;;;;;;;;4975421;28;20443;-62
2023/07/21 08:25:18;;;;;;;2.65;1.40;;;;;;;;;;4974881;28;20057;-63
2023/07/21 08:27:44;;;;;;;3.40;1.30;;;;;;;;;;4975340;28;20406;-62
2023/07/21 08:30:11;;;;;;;2.10;1.40;;;;;;;;;;4975442;28;20438;-62
2023/07/21 08:32:38;;;;;;;6.15;1.52;;;;;;;;;;4972841;28;20029;-62
2023/07/21 08:35:11;;;;;;;3.63;1.77;;;;;;;;;;4974554;28;20019;-63
2023/07/21 08:37:38;;;;;;;3.20;1.27;;;;;;;;;;4973647;28;20030;-63
2023/07/21 08:40:06;;;;;;;2.55;1.20;;;;;;;;;;4975156;28;20037;-62
2023/07/21 08:42:33;;;;;;;4.65;1.30;;;;;;;;;;4975038;28;20056;-62
2023/07/21 08:45:00;;;;;;;3.80;1.73;;;;;;;;;;4972879;28;20023;-62
2023/07/21 08:47:27;;;;;;;3.90;1.65;;;;;;;;;;4974308;28;20510;-62
2023/07/21 08:49:53;;;;;;;2.63;1.35;;;;;;;;;;4974582;28;20022;-62
2023/07/21 08:52:19;;;;;;;2.70;1.50;;;;;;;;;;4973819;28;20029;-63
2023/07/21 08:54:45;;;;;;;1.55;1.25;;;;;;;;;;4974168;28;20488;-61
2023/07/21 08:57:12;;;;;;;1.95;1.20;;;;;;;;;;4962290;28;20541;-63
2023/07/21 08:59:39;;;;;;;1.83;1.40;;;;;;;;;;4972605;28;20033;-63
2023/07/21 09:02:06;;;;;;;2.53;1.38;;;;;;;;;;4974333;28;20073;-63
2023/07/21 09:04:32;;;;;;;3.13;1.55;;;;;;;;;;4973510;28;20030;-63
2023/07/21 09:07:00;;;;;;;2.97;1.33;;;;;;;;;;4973165;28;20019;-63
2023/07/21 09:09:27;;;;;;;2.10;1.50;;;;;;;;;;4966813;28;20023;-62
2023/07/21 09:12:01;;;;;;;1.85;1.63;;;;;;;;;;4959791;28;20024;-61
2023/07/21 09:14:37;;;;;;;3.25;1.67;;;;;;;;;;4959952;28;20045;-60
2023/07/21 09:17:05;;;;;;;1.60;1.38;;;;;;;;;;4974046;28;20022;-61
2023/07/21 09:19:35;;;;;;;1.38;1.27;;;;;;;;;;4974446;28;20042;-61
2023/07/21 09:22:01;;;;;;;3.10;1.42;;;;;;;;;;4971904;28;20031;-63
2023/07/21 09:24:27;;;;;;;3.35;1.42;;;;;;;;;;4972371;28;20509;-61
2023/07/21 09:27:12;;;;;;;3.15;1.70;;;;;;;;;;4970203;28;20037;-63
2023/07/21 09:29:39;;;;;;;3.45;1.23;;;;;;;;;;4973217;28;20030;-62
2023/07/21 09:32:16;;;;;;;4.72;1.33;;;;;;;;;;4972686;28;20026;-62
2023/07/21 09:34:59;;;;;;;3.47;1.60;;;;;;;;;;4972495;28;20434;-61
2023/07/21 09:37:29;;;;;;;2.22;1.70;;;;;;;;;;4970958;28;20084;-62
2023/07/21 09:39:57;;;;;;;2.40;1.70;;;;;;;;;;4966751;28;20492;-63
2023/07/21 09:42:24;;;;;;;3.15;1.50;;;;;;;;;;4972791;28;20042;-63
2023/07/21 09:44:51;;;;;;;3.55;1.65;;;;;;;;;;4972708;28;20498;-64
2023/07/21 09:47:18;;;;;;;4.40;1.67;;;;;;;;;;4962917;28;20385;-62
2023/07/21 09:49:45;;;;;;;2.38;1.60;;;;;;;;;;4972975;28;20049;-61
2023/07/21 09:52:15;;;;;;;12.68;1.45;;;;;;;;;;4973306;28;20018;-61
2023/07/21 09:54:45;;;;;;;2.63;1.52;;;;;;;;;;4973085;28;20384;-61
2023/07/21 09:57:14;;;;;;;5.95;1.65;;;;;;;;;;4973412;28;20027;-61
2023/07/21 09:59:44;;;;;;;2.80;1.88;;;;;;;;;;4965817;28;20030;-61
2023/07/21 10:02:11;;;;;;;2.10;1.67;;;;;;;;;;4964138;28;20043;-61
2023/07/21 10:04:38;;;;;;;1.52;1.42;;;;;;;;;;4952119;29;20035;-57
2023/07/21 10:07:06;;;;;;;4.38;1.58;;;;;;;;;;4953960;29;20023;-53
2023/07/21 10:09:33;;;;;;;2.13;1.63;;;;;;;;;;4953573;29;20498;-56
2023/07/21 10:12:12;;;;;;;2.55;1.48;;;;;;;;;;4953999;29;20049;-58
2023/07/21 10:14:39;;;;;;;1.90;1.55;;;;;;;;;;4952718;29;20051;-60
2023/07/21 10:17:06;;;;;;;2.22;1.50;;;;;;;;;;4968568;28;20027;-60
2023/07/21 10:19:40;;;;;;;4.43;1.63;;;;;;;;;;4972765;28;20063;-59
2023/07/21 10:22:09;;;;;;;2.75;1.75;;;;;;;;;;4972753;28;20094;-60
2023/07/21 10:24:42;;;;;;;2.47;1.70;;;;;;;;;;4972775;28;20026;-60
2023/07/21 10:27:08;;;;;;;2.05;1.65;;;;;;;;;;4972608;28;20034;-59
2023/07/21 10:29:37;;;;;;;2.25;1.70;;;;;;;;;;4971447;28;20480;-59
2023/07/21 10:32:04;;;;;;;3.65;1.73;;;;;;;;;;4972892;28;20034;-60
2023/07/21 10:34:34;;;;;;;4.10;1.80;;;;;;;;;;4972222;28;20446;-59
2023/07/21 10:37:04;;;;;;;6.13;1.70;;;;;;;;;;4959810;28;20024;-60
2023/07/21 10:39:34;;;;;;;1.60;1.30;;;;;;;;;;4957744;28;20033;-59
2023/07/21 10:42:03;;;;;;;1.50;1.40;;;;;;;;;;4973079;28;20270;-60
2023/07/21 10:44:39;;;;;;;5.07;1.42;;;;;;;;;;4972594;28;20035;-60
2023/07/21 10:47:10;;;;;;;2.30;1.58;;;;;;;;;;4972641;28;20027;-60
2023/07/21 10:49:37;;;;;;;2.13;1.58;;;;;;;;;;4972515;28;20049;-60
2023/07/21 10:52:04;;;;;;;3.25;1.50;;;;;;;;;;4972207;28;20503;-59
2023/07/21 10:54:30;;;;;;;3.55;1.70;;;;;;;;;;4972644;28;20383;-59
2023/07/21 10:56:58;;;;;;;2.58;1.55;;;;;;;;;;4972710;28;20019;-60
2023/07/21 10:59:24;;;;;;;1.63;1.50;;;;;;;;;;4972335;28;20376;-60
2023/07/21 11:01:53;;;;;;;3.22;1.73;;;;;;;;;;4972480;28;20397;-60
2023/07/21 11:04:20;;;;;;;2.72;1.58;;;;;;;;;;4972376;28;20038;-60
2023/07/21 11:06:51;;;;;;;6.88;1.58;;;;;;;;;;4972558;28;20058;-60
2023/07/21 11:09:19;;;;;;;1.80;1.50;;;;;;;;;;4972183;28;20029;-60
2023/07/21 11:11:46;;;;;;;2.20;1.40;;;;;;;;;;4975482;28;20034;-59
2023/07/21 11:14:17;;;;;;;2.17;1.60;;;;;;;;;;4975846;28;20046;-59
2023/07/21 11:16:44;;;;;;;1.73;1.58;;;;;;;;;;4976298;28;20034;-56
2023/07/21 11:19:12;;;;;;;8.00;3.75;;;;;;;;;;4976089;28;20419;-60
2023/07/21 11:21:39;;;;;;;3.75;2.70;;;;;;;;;;4976339;28;20511;-60
2023/07/21 11:24:08;;;;;;;3.97;1.83;;;;;;;;;;4976274;28;20031;-58
2023/07/21 11:26:36;;;;;;;4.53;2.50;;;;;;;;;;4974306;28;20438;-60
2023/07/21 11:29:05;;;;;;;3.05;1.92;;;;;;;;;;4976341;28;20390;-60
2023/07/21 11:31:33;;;;;;;2.85;1.98;;;;;;;;;;4976427;28;20471;-60
2023/07/21 11:33:59;;;;;;;7.28;1.83;;;;;;;;;;4991118;28;20030;-60
2023/07/21 11:36:28;;;;;;;4.35;2.20;;;;;;;;;;4976072;28;20031;-60
2023/07/21 11:38:58;;;;;;;3.97;2.00;;;;;;;;;;4973956;28;20085;-60
2023/07/21 11:41:36;;;;;;;3.95;1.85;;;;;;;;;;4973544;28;20035;-57
2023/07/21 11:44:05;;;;;;;2.15;1.65;;;;;;;;;;4974017;28;20033;-60
2023/07/21 11:46:31;;;;;;;3.03;1.85;;;;;;;;;;4966160;28;20023;-60
2023/07/21 11:48:58;;;;;;;3.05;1.85;;;;;;;;;;4975077;28;20442;-60
2023/07/21 11:51:25;;;;;;;3.80;1.65;;;;;;;;;;4971674;28;20031;-56
2023/07/21 11:53:52;;;;;;;4.43;1.75;;;;;;;;;;4974147;28;20038;-59
2023/07/21 11:56:19;;;;;;;3.90;2.05;;;;;;;;;;4975740;28;20033;-60
2023/07/21 11:58:45;;;;;;;2.38;1.75;;;;;;;;;;4973337;28;20390;-60
2023/07/21 12:01:12;;;;;;;4.57;1.90;;;;;;;;;;4972980;28;20034;-60
2023/07/21 12:03:40;;;;;;;3.30;1.90;;;;;;;;;;4974572;28;20031;-60
2023/07/21 12:06:06;;;;;;;4.30;1.90;;;;;;;;;;4973440;28;20023;-58
2023/07/21 12:08:33;;;;;;;3.30;1.90;;;;;;;;;;4973175;28;20027;-59
2023/07/21 12:11:00;;;;;;;3.38;2.10;;;;;;;;;;4963140;28;20058;-58
2023/07/21 12:13:26;;;;;;;2.97;2.00;;;;;;;;;;4955903;29;20031;-59
2023/07/21 12:15:53;;;;;;;4.13;1.90;;;;;;;;;;4959395;28;20491;-59
2023/07/21 12:18:19;;;;;;;4.95;1.83;;;;;;;;;;4969816;28;20034;-60
2023/07/21 12:20:46;;;;;;;2.40;1.90;;;;;;;;;;4970778;28;20026;-57
2023/07/21 12:23:12;;;;;;;3.30;1.70;;;;;;;;;;4970838;28;20027;-60
2023/07/21 12:25:38;;;;;;;3.50;1.75;;;;;;;;;;4969534;28;20030;-59
2023/07/21 12:28:05;;;;;;;3.60;1.75;;;;;;;;;;4967830;28;20031;-60
2023/07/21 12:30:31;;;;;;;2.67;1.70;;;;;;;;;;4967048;28;20411;-59
2023/07/21 12:32:57;;;;;;;2.33;1.90;;;;;;;;;;4970644;28;20038;-56
2023/07/21 12:35:24;;;;;;;2.30;1.73;;;;;;;;;;4972210;28;20077;-59
2023/07/21 12:37:50;;;;;;;3.08;1.80;;;;;;;;;;4974013;28;20030;-59
2023/07/21 12:40:16;;;;;;;2.65;1.70;;;;;;;;;;4973862;28;20019;-60
2023/07/21 12:42:42;;;;;;;3.65;1.70;;;;;;;;;;4971114;28;20047;-60
2023/07/21 12:45:09;;;;;;;2.67;1.88;;;;;;;;;;4968882;28;20406;-60
2023/07/21 12:47:36;;;;;;;3.75;1.90;;;;;;;;;;4974333;28;20467;-59
2023/07/21 12:50:02;;;;;;;3.70;1.95;;;;;;;;;;4973256;28;20033;-60
2023/07/21 12:52:29;;;;;;;2.45;1.70;;;;;;;;;;4972975;28;20045;-59
2023/07/21 12:54:55;;;;;;;1.77;1.60;;;;;;;;;;4972581;28;20473;-59
2023/07/21 12:57:21;;;;;;;2.05;1.52;;;;;;;;;;4974251;28;20029;-59
2023/07/21 12:59:47;;;;;;;5.32;1.70;;;;;;;;;;4973209;28;20026;-60
2023/07/21 13:02:14;;;;;;;2.42;1.80;;;;;;;;;;4973532;28;20410;-51
2023/07/21 13:04:40;;;;;;;2.88;1.60;;;;;;;;;;4974482;28;20027;-57
2023/07/21 13:07:11;;;;;;;2.38;1.50;;;;;;;;;;4973579;28;20033;-59
2023/07/21 13:09:37;;;;;;;2.42;1.48;;;;;;;;;;4974318;28;20022;-59
2023/07/21 13:12:03;;;;;;;2.30;1.45;;;;;;;;;;4974031;28;20047;-60
2023/07/21 13:14:31;;;;;;;2.55;1.60;;;;;;;;;;4973091;28;20050;-59
2023/07/21 13:16:58;;;;;;;3.05;1.50;;;;;;;;;;4973849;28;20483;-60
2023/07/21 13:19:24;;;;;;;2.60;1.50;;;;;;;;;;4974322;28;20031;-57
2023/07/21 13:21:51;;;;;;;5.15;1.45;;;;;;;;;;4974132;28;20038;-59
2023/07/21 13:24:17;;;;;;;3.17;1.33;;;;;;;;;;4973995;28;20033;-58
2023/07/21 13:26:43;;;;;;;3.53;1.48;;;;;;;;;;4973880;28;20022;-60
2023/07/21 13:29:13;;;;;;;3.28;1.85;;;;;;;;;;4973216;28;20022;-60
2023/07/21 13:31:39;;;;;;;2.55;1.55;;;;;;;;;;4973618;28;20026;-54
2023/07/21 13:34:05;;;;;;;2.45;1.52;;;;;;;;;;4973667;28;20026;-60
2023/07/21 13:36:32;;;;;;;3.70;1.42;;;;;;;;;;4972902;28;20031;-57
2023/07/21 13:38:58;;;;;;;2.58;1.70;;;;;;;;;;4972944;28;20019;-60
2023/07/21 13:41:24;;;;;;;2.15;1.50;;;;;;;;;;4973720;28;20470;-54
2023/07/21 13:43:51;;;;;;;4.22;1.60;;;;;;;;;;4973241;28;20043;-57
2023/07/21 13:46:17;;;;;;;3.75;1.70;;;;;;;;;;4972278;28;20490;-56
2023/07/21 13:48:43;;;;;;;2.50;1.25;;;;;;;;;;4972925;28;20081;-59
2023/07/21 13:51:09;;;;;;;3.65;1.65;;;;;;;;;;4972732;28;20023;-55
2023/07/21 13:53:36;;;;;;;3.75;1.55;;;;;;;;;;4966994;28;20491;-59
2023/07/21 13:56:02;;;;;;;3.83;2.03;;;;;;;;;;4973282;28;20035;-59
2023/07/21 13:58:29;;;;;;;3.10;1.80;;;;;;;;;;4972505;28;20228;-60
2023/07/21 14:00:55;;;;;;;3.90;1.77;;;;;;;;;;4973254;28;20373;-59
2023/07/21 14:03:22;;;;;;;6.95;1.83;;;;;;;;;;4972799;28;20039;-59
2023/07/21 14:05:48;;;;;;;2.08;1.55;;;;;;;;;;4973691;28;20015;-55
2023/07/21 14:08:15;;;;;;;2.65;1.95;;;;;;;;;;4972986;28;20037;-59
2023/07/21 14:10:41;;;;;;;2.92;1.70;;;;;;;;;;4971283;28;20025;-60
2023/07/21 14:13:08;;;;;;;2.92;1.70;;;;;;;;;;4972647;28;20037;-59
2023/07/21 14:15:34;;;;;;;1.77;1.33;;;;;;;;;;4971643;28;20047;-60
2023/07/21 14:18:00;;;;;;;3.08;1.75;;;;;;;;;;4972075;28;20033;-58
2023/07/21 14:20:28;;;;;;;4.30;2.05;;;;;;;;;;4972848;28;20391;-59
2023/07/21 14:22:54;;;;;;;4.28;1.90;;;;;;;;;;4972166;28;20034;-54
2023/07/21 14:25:21;;;;;;;4.53;2.15;;;;;;;;;;4971398;28;20041;-58
2023/07/21 14:27:48;;;;;;;1.98;1.73;;;;;;;;;;4972786;28;20027;-59
2023/07/21 14:30:15;;;;;;;3.33;1.88;;;;;;;;;;4972899;28;20022;-59
2023/07/21 14:32:41;;;;;;;5.88;2.00;;;;;;;;;;4971891;28;20023;-59
2023/07/21 14:35:11;;;;;;;3.10;1.77;;;;;;;;;;4970886;28;20068;-60
2023/07/21 14:37:37;;;;;;;3.40;2.20;;;;;;;;;;4971613;28;20402;-60
2023/07/21 14:40:14;;;;;;;4.32;2.15;;;;;;;;;;4972923;28;20035;-53
2023/07/21 14:42:41;;;;;;;3.83;1.85;;;;;;;;;;4972118;28;20097;-56